| Date | Time | Temp. (oF) | Dew Point (oF) | Rel. Hum. (%) | Press. (in.) | Wind Dir. | Wind Speed (mph) | Hourly Rainfall (in.) |
|
|---|---|---|---|---|---|---|---|---|---|
| 1 | 11/30 | 00:00 | 52 | 51 | 100 | 29.95 | NNW | 0 | 0.00 |
| 2 | 11/29 | 23:00 | 52 | 51 | 100 | 29.94 | NNW | 0 | 0.00 |
| 3 | 11/29 | 22:00 | 52 | 51 | 100 | 29.93 | NNW | 0 | 0.00 |
| 4 | 11/29 | 21:00 | 52 | 51 | 100 | 29.91 | N | 1 | 0.00 |
| 5 | 11/29 | 20:00 | 53 | 53 | 100 | 29.89 | NNW | 0 | 0.01 |
| 6 | 11/29 | 19:00 | 54 | 54 | 100 | 29.87 | SSW | 0 | 0.00 |
| 7 | 11/29 | 18:00 | 55 | 54 | 100 | 29.85 | NNW | 0 | 0.05 |
| 8 | 11/29 | 17:00 | 55 | 54 | 100 | 29.84 | NNW | 0 | 0.05 |
| 9 | 11/29 | 16:00 | 56 | 55 | 99 | 29.82 | NNW | 0 | 0.05 |
| 10 | 11/29 | 15:00 | 57 | 55 | 95 | 29.81 | NNW | 1 | 0.00 |
| 11 | 11/29 | 14:00 | 57 | 55 | 96 | 29.80 | NNW | 7 | 0.02 |
| 12 | 11/29 | 13:00 | 54 | 54 | 100 | 29.79 | NNW | 5 | 0.13 |
| 13 | 11/29 | 12:00 | 54 | 54 | 100 | 29.86 | NNW | 4 | 0.08 |
| 14 | 11/29 | 11:00 | 53 | 53 | 100 | 29.90 | N | 6 | 0.15 |
| 15 | 11/29 | 10:00 | 52 | 51 | 100 | 29.91 | N | 9 | 0.31 |
| 16 | 11/29 | 09:00 | 52 | 51 | 100 | 29.92 | N | 9 | 0.00 |
| 17 | 11/29 | 08:00 | 50 | 49 | 99 | 29.95 | N | 6 | 0.00 |
| 18 | 11/29 | 07:00 | 49 | 48 | 99 | 29.96 | N | 8 | 0.00 |
| 19 | 11/29 | 06:00 | 47 | 44 | 92 | 29.98 | N | 1 | 0.00 |
| 20 | 11/29 | 05:00 | 47 | 43 | 88 | 29.99 | N | 2 | 0.00 |
| 21 | 11/29 | 04:00 | 46 | 39 | 78 | 30.00 | N | 3 | 0.00 |
| 22 | 11/29 | 03:00 | 46 | 36 | 70 | 30.03 | N | 4 | 0.00 |
| 23 | 11/29 | 02:00 | 46 | 36 | 70 | 30.06 | N | 1 | 0.00 |
| 24 | 11/29 | 01:00 | 46 | 37 | 73 | 30.05 | N | 7 | 0.00 |